createdAt,value
2023-04-07T00:01:42.597Z,124.90
2023-04-07T00:04:10.038Z,131.90
2023-04-07T00:06:37.268Z,128.50
2023-04-07T00:09:04.348Z,132.83
2023-04-07T00:11:31.588Z,122.00
2023-04-07T00:13:58.720Z,133.37
2023-04-07T00:16:25.969Z,133.70
2023-04-07T00:18:53.204Z,139.40
2023-04-07T00:21:21.094Z,134.87
2023-04-07T00:23:48.517Z,130.13
2023-04-07T00:26:15.581Z,140.83
2023-04-07T00:28:44.444Z,134.07
2023-04-07T00:31:11.635Z,128.77
2023-04-07T00:33:39.256Z,126.23
2023-04-07T00:36:06.507Z,133.70
2023-04-07T00:38:33.458Z,133.47
2023-04-07T00:41:01.402Z,122.77
2023-04-07T00:43:28.639Z,136.50
2023-04-07T00:45:56.360Z,133.83
2023-04-07T00:48:23.647Z,131.77
2023-04-07T00:50:51.156Z,128.60
2023-04-07T00:53:18.416Z,128.63
2023-04-07T00:55:46.067Z,128.90
2023-04-07T00:58:13.046Z,131.50
2023-04-07T01:01:30.953Z,126.80
2023-04-07T01:04:14.215Z,121.13
2023-04-07T01:06:57.210Z,114.40
2023-04-07T01:09:38.568Z,122.33
2023-04-07T01:12:29.062Z,123.80
2023-04-07T01:15:00.639Z,122.37
2023-04-07T01:17:42.648Z,123.77
2023-04-07T01:20:14.130Z,124.73
2023-04-07T01:22:50.541Z,119.87
2023-04-07T01:25:36.249Z,123.10
2023-04-07T01:28:11.499Z,127.53
2023-04-07T01:30:41.864Z,122.23
2023-04-07T01:33:11.744Z,125.57
2023-04-07T01:35:40.115Z,119.10
2023-04-07T01:38:07.510Z,123.60
2023-04-07T01:40:35.772Z,137.60
2023-04-07T01:43:03.677Z,131.33
2023-04-07T01:45:32.445Z,123.33
2023-04-07T01:48:01.181Z,131.63
2023-04-07T01:50:30.007Z,122.47
2023-04-07T01:52:57.695Z,126.37
2023-04-07T01:55:25.706Z,137.73
2023-04-07T01:58:06.633Z,133.80
2023-04-07T02:00:35.475Z,127.00
2023-04-07T02:03:21.081Z,125.87
2023-04-07T02:05:52.517Z,122.50
2023-04-07T02:08:24.519Z,133.13
2023-04-07T02:10:52.987Z,123.07
2023-04-07T02:13:21.420Z,121.00
2023-04-07T02:15:51.577Z,128.47
2023-04-07T02:18:21.080Z,123.43
2023-04-07T02:20:50.649Z,115.77
2023-04-07T02:23:17.979Z,117.00
2023-04-07T02:25:45.536Z,116.93
2023-04-07T02:28:12.666Z,118.20
2023-04-07T02:30:40.180Z,123.67
2023-04-07T02:33:07.236Z,123.27
2023-04-07T02:35:34.334Z,124.90
2023-04-07T02:38:02.383Z,120.47
2023-04-07T02:40:29.400Z,122.70
2023-04-07T02:42:56.810Z,114.43
2023-04-07T02:45:24.083Z,119.77
2023-04-07T02:47:51.283Z,122.17
2023-04-07T02:50:18.575Z,118.90
2023-04-07T02:52:45.796Z,117.97
2023-04-07T02:55:15.160Z,119.70
2023-04-07T02:57:42.522Z,125.50
2023-04-07T03:00:19.259Z,125.70
2023-04-07T03:03:19.015Z,114.97
2023-04-07T03:05:59.223Z,124.87
2023-04-07T03:08:27.340Z,129.13
2023-04-07T03:10:55.622Z,120.20
2023-04-07T03:13:29.948Z,114.47
2023-04-07T03:15:58.181Z,120.90
2023-04-07T03:18:28.522Z,120.93
2023-04-07T03:21:00.517Z,113.07
2023-04-07T03:23:29.483Z,123.03
2023-04-07T03:25:58.853Z,125.37
2023-04-07T03:28:31.262Z,132.80
2023-04-07T03:30:58.289Z,129.93
2023-04-07T03:33:25.609Z,123.87
2023-04-07T03:35:54.870Z,122.07
2023-04-07T03:38:22.989Z,132.87
2023-04-07T03:40:54.454Z,125.13
2023-04-07T03:43:22.212Z,128.87
2023-04-07T03:45:50.832Z,127.37
2023-04-07T03:48:21.280Z,128.33
2023-04-07T03:50:58.202Z,134.53
2023-04-07T03:53:25.721Z,125.70
2023-04-07T03:55:53.635Z,123.37
2023-04-07T03:58:47.199Z,125.87
2023-04-07T04:01:20.346Z,119.47
2023-04-07T04:03:51.056Z,126.57
2023-04-07T04:06:27.314Z,124.83
2023-04-07T04:09:01.629Z,129.90
2023-04-07T04:11:31.672Z,111.80
2023-04-07T04:14:02.814Z,124.87
2023-04-07T04:16:31.666Z,123.20
2023-04-07T04:19:03.460Z,128.53
2023-04-07T04:21:31.524Z,113.87
2023-04-07T04:23:58.798Z,119.53
2023-04-07T04:26:29.846Z,126.17
2023-04-07T04:29:03.449Z,116.13
2023-04-07T04:31:31.038Z,130.37
2023-04-07T04:33:58.547Z,130.60
2023-04-07T04:36:26.543Z,130.10
2023-04-07T04:38:58.864Z,130.90
2023-04-07T04:41:25.848Z,106.37
2023-04-07T04:43:53.103Z,129.77
2023-04-07T04:46:25.171Z,132.17
2023-04-07T04:48:52.940Z,135.20
2023-04-07T04:51:21.313Z,135.40
2023-04-07T04:53:54.547Z,126.43
2023-04-07T04:56:23.818Z,130.47
2023-04-07T04:58:51.578Z,125.57
2023-04-07T05:01:28.321Z,123.13
2023-04-07T05:04:03.675Z,114.93
2023-04-07T05:06:31.356Z,116.60
2023-04-07T05:09:03.169Z,119.40
2023-04-07T05:11:40.754Z,116.70
2023-04-07T05:14:07.812Z,118.23
2023-04-07T05:16:36.142Z,111.87
2023-04-07T05:19:04.865Z,113.57
2023-04-07T05:21:31.901Z,110.30
2023-04-07T05:24:03.401Z,113.77
2023-04-07T05:26:32.693Z,103.17
2023-04-07T05:29:00.760Z,110.90
2023-04-07T05:31:28.969Z,108.23
2023-04-07T05:33:58.131Z,112.47
2023-04-07T05:36:28.896Z,110.40
2023-04-07T05:38:57.821Z,113.27
2023-04-07T05:41:25.053Z,103.80
2023-04-07T05:43:52.413Z,104.83
2023-04-07T05:46:19.689Z,103.13
2023-04-07T05:48:59.181Z,108.27
2023-04-07T05:51:31.668Z,107.07
2023-04-07T05:54:05.607Z,107.00
2023-04-07T05:56:32.765Z,102.87
2023-04-07T05:59:01.957Z,112.10
2023-04-07T06:01:29.827Z,108.90
2023-04-07T06:03:59.119Z,114.33
2023-04-07T06:06:27.892Z,104.50
2023-04-07T06:08:54.894Z,111.40
2023-04-07T06:11:23.882Z,114.47
2023-04-07T06:13:51.302Z,102.07
2023-04-07T06:16:19.658Z,112.60
2023-04-07T06:18:47.550Z,112.70
2023-04-07T06:21:14.735Z,112.93
2023-04-07T06:23:41.683Z,112.83
2023-04-07T06:26:12.673Z,108.27
2023-04-07T06:28:40.421Z,94.37
2023-04-07T06:31:08.845Z,114.93
2023-04-07T06:33:36.971Z,111.67
2023-04-07T06:36:04.491Z,104.97
2023-04-07T06:38:31.890Z,101.07
2023-04-07T06:40:59.348Z,103.00
2023-04-07T06:43:26.504Z,101.70
2023-04-07T06:46:02.054Z,91.67
2023-04-07T06:48:29.177Z,89.30
2023-04-07T06:50:56.562Z,99.50
2023-04-07T06:53:23.782Z,100.80
2023-04-07T06:55:50.864Z,95.47
2023-04-07T06:58:17.808Z,79.77
2023-04-07T07:00:44.830Z,88.47
2023-04-07T07:03:11.993Z,91.80
2023-04-07T07:05:39.010Z,86.53
2023-04-07T07:08:06.068Z,89.37
2023-04-07T07:10:33.111Z,90.23
2023-04-07T07:13:00.140Z,92.93
2023-04-07T07:15:27.186Z,86.80
2023-04-07T07:17:54.305Z,90.77
2023-04-07T07:20:23.598Z,84.20
2023-04-07T07:22:51.055Z,82.13
2023-04-07T07:25:18.351Z,79.20
2023-04-07T07:27:45.624Z,87.00
2023-04-07T07:30:12.921Z,81.43
2023-04-07T07:32:39.950Z,93.23
2023-04-07T07:35:07.139Z,92.50
2023-04-07T07:37:34.131Z,99.40
2023-04-07T07:40:01.834Z,87.70
2023-04-07T07:42:29.589Z,85.63
2023-04-07T07:44:56.732Z,87.80
2023-04-07T07:47:24.133Z,83.60
2023-04-07T07:49:51.219Z,81.30
2023-04-07T07:52:18.373Z,81.83
2023-04-07T07:54:45.534Z,86.03
2023-04-07T07:57:12.769Z,89.10
2023-04-07T07:59:41.129Z,88.40
2023-04-07T08:02:09.281Z,80.23
2023-04-07T08:04:37.621Z,75.83
2023-04-07T08:07:05.060Z,81.73
2023-04-07T08:09:32.609Z,82.07
2023-04-07T08:11:59.811Z,76.77
2023-04-07T08:14:27.077Z,78.77
2023-04-07T08:16:54.128Z,73.73
2023-04-07T08:19:21.467Z,71.10
2023-04-07T08:21:48.437Z,77.07
2023-04-07T08:24:15.656Z,74.40
2023-04-07T08:26:42.626Z,68.20
2023-04-07T08:29:09.787Z,70.97
2023-04-07T08:31:37.038Z,69.53
2023-04-07T08:34:04.188Z,76.40
2023-04-07T08:36:31.597Z,70.87
2023-04-07T08:39:00.372Z,70.87
2023-04-07T08:41:36.890Z,71.77
2023-04-07T08:44:04.114Z,70.20
2023-04-07T08:46:32.143Z,77.80
2023-04-07T08:49:00.933Z,68.43
2023-04-07T08:51:33.256Z,64.70
2023-04-07T08:54:09.198Z,69.50
2023-04-07T08:56:40.958Z,69.50
2023-04-07T08:59:10.939Z,69.30
2023-04-07T09:01:38.218Z,69.30
2023-04-07T09:04:06.959Z,72.93
2023-04-07T09:06:35.530Z,73.57
2023-04-07T09:09:05.995Z,78.43
2023-04-07T09:11:36.606Z,73.47
2023-04-07T09:14:03.702Z,66.87
2023-04-07T09:16:31.307Z,67.67
2023-04-07T09:18:58.960Z,69.33
2023-04-07T09:21:27.431Z,73.53
2023-04-07T09:23:54.501Z,71.43
2023-04-07T09:26:24.501Z,71.00
2023-04-07T09:28:54.195Z,76.13
2023-04-07T09:31:22.252Z,77.30
2023-04-07T09:33:50.425Z,66.83
2023-04-07T09:36:17.465Z,70.80
2023-04-07T09:38:46.157Z,66.57
2023-04-07T09:41:16.478Z,73.53
2023-04-07T09:43:46.106Z,67.50
2023-04-07T09:46:19.173Z,76.53
2023-04-07T09:48:46.982Z,78.77
2023-04-07T09:51:16.755Z,75.30
2023-04-07T09:53:44.686Z,78.23
2023-04-07T09:56:12.221Z,70.40
2023-04-07T09:58:41.039Z,68.40
2023-04-07T10:01:12.456Z,74.57
2023-04-07T10:03:40.560Z,67.00
2023-04-07T10:06:08.328Z,73.70
2023-04-07T10:08:40.744Z,66.53
2023-04-07T10:11:08.430Z,69.07
2023-04-07T10:13:37.604Z,70.57
2023-04-07T10:16:06.827Z,65.67
2023-04-07T10:18:36.022Z,64.50
2023-04-07T10:21:05.174Z,69.23
2023-04-07T10:23:38.600Z,68.97
2023-04-07T10:26:08.284Z,66.83
2023-04-07T10:28:39.126Z,69.60
2023-04-07T10:31:06.692Z,60.17
2023-04-07T10:33:53.416Z,65.73
2023-04-07T10:36:22.170Z,60.03
2023-04-07T10:39:07.377Z,60.10
2023-04-07T10:41:41.544Z,54.80
2023-04-07T10:44:11.066Z,48.87
2023-04-07T10:46:50.114Z,49.73
2023-04-07T10:49:18.838Z,53.17
2023-04-07T10:52:12.298Z,56.33
2023-04-07T10:54:42.928Z,43.43
2023-04-07T10:57:15.087Z,52.40
2023-04-07T11:00:10.628Z,56.73
2023-04-07T11:02:41.504Z,49.63
2023-04-07T11:05:09.015Z,50.13
2023-04-07T11:07:50.102Z,55.43
2023-04-07T11:10:19.258Z,49.63
2023-04-07T11:13:05.525Z,47.60
2023-04-07T11:15:34.347Z,47.83
2023-04-07T11:18:07.603Z,51.37
2023-04-07T11:20:49.288Z,53.90
2023-04-07T11:23:18.531Z,49.83
2023-04-07T11:25:48.141Z,50.00
2023-04-07T11:28:16.092Z,49.40
2023-04-07T11:30:50.091Z,50.37
2023-04-07T11:33:19.105Z,49.20
2023-04-07T11:35:55.972Z,45.30
2023-04-07T11:38:25.104Z,49.60
2023-04-07T11:40:52.273Z,47.63
2023-04-07T11:43:28.341Z,54.63
2023-04-07T11:46:15.229Z,45.43
2023-04-07T11:48:44.226Z,45.20
2023-04-07T11:51:19.282Z,43.27
2023-04-07T11:53:48.467Z,42.93
2023-04-07T11:56:17.046Z,45.67
2023-04-07T11:58:52.724Z,45.60
2023-04-07T12:01:20.622Z,44.73
2023-04-07T12:04:00.132Z,40.60
2023-04-07T12:06:38.612Z,44.20
2023-04-07T12:09:06.465Z,50.37
2023-04-07T12:11:34.710Z,43.83
2023-04-07T12:14:04.974Z,44.63
2023-04-07T12:16:32.201Z,45.87
2023-04-07T12:18:59.378Z,47.03
2023-04-07T12:21:26.707Z,46.23
2023-04-07T12:23:53.744Z,47.53
2023-04-07T12:26:23.419Z,52.77
2023-04-07T12:28:51.063Z,53.03
2023-04-07T12:31:18.152Z,52.13
2023-04-07T12:33:45.431Z,47.83
2023-04-07T12:36:12.686Z,51.27
2023-04-07T12:38:39.766Z,53.80
2023-04-07T12:41:06.877Z,57.63
2023-04-07T12:43:34.672Z,61.13
2023-04-07T12:46:01.859Z,56.03
2023-04-07T12:48:29.119Z,53.97
2023-04-07T12:50:56.320Z,49.93
2023-04-07T12:53:23.556Z,59.00
2023-04-07T12:55:50.685Z,52.37
2023-04-07T12:58:18.613Z,55.50
2023-04-07T13:00:48.873Z,65.10
2023-04-07T13:03:16.255Z,59.63
2023-04-07T13:05:43.339Z,63.20
2023-04-07T13:08:10.968Z,67.17
2023-04-07T13:10:38.054Z,60.03
2023-04-07T13:13:05.340Z,60.13
2023-04-07T13:15:32.357Z,58.33
2023-04-07T13:17:59.532Z,54.50
2023-04-07T13:20:28.391Z,60.23
2023-04-07T13:23:07.023Z,55.93
2023-04-07T13:25:35.269Z,61.30
2023-04-07T13:28:02.373Z,59.70
2023-04-07T13:30:29.425Z,57.90
2023-04-07T13:32:57.284Z,60.17
2023-04-07T13:35:24.449Z,61.10
2023-04-07T13:37:51.445Z,61.90
2023-04-07T13:40:18.814Z,58.07
2023-04-07T13:42:46.278Z,56.67
2023-04-07T13:45:13.345Z,58.87
2023-04-07T13:47:40.390Z,57.70
2023-04-07T13:50:07.791Z,53.60
2023-04-07T13:52:35.519Z,55.67
2023-04-07T13:55:04.374Z,55.47
2023-04-07T13:57:31.811Z,54.70
2023-04-07T13:59:59.390Z,63.30
2023-04-07T14:02:30.543Z,62.77
2023-04-07T14:04:58.144Z,62.23
2023-04-07T14:07:25.363Z,58.57
2023-04-07T14:09:52.518Z,58.63
2023-04-07T14:12:21.920Z,63.53
2023-04-07T14:14:52.290Z,57.90
2023-04-07T14:17:19.526Z,56.47
2023-04-07T14:19:46.632Z,58.30
2023-04-07T14:22:15.155Z,62.57
2023-04-07T14:24:42.292Z,57.53
2023-04-07T14:27:09.311Z,61.27
2023-04-07T14:29:36.641Z,60.63
2023-04-07T14:32:03.832Z,61.50
2023-04-07T14:34:31.129Z,61.60
2023-04-07T14:37:01.486Z,67.00
2023-04-07T14:39:29.264Z,61.10
2023-04-07T14:41:56.625Z,60.37
2023-04-07T14:44:23.772Z,62.67
2023-04-07T14:46:51.141Z,66.13
2023-04-07T14:49:26.241Z,62.57
2023-04-07T14:51:54.220Z,61.93
2023-04-07T14:54:21.993Z,60.23
2023-04-07T14:56:49.665Z,58.00
2023-04-07T14:59:16.828Z,58.53
2023-04-07T15:01:43.847Z,57.80
2023-04-07T15:04:11.264Z,58.60
2023-04-07T15:06:42.060Z,58.93
2023-04-07T15:09:09.644Z,60.90
2023-04-07T15:11:36.791Z,59.13
2023-04-07T15:14:05.809Z,63.57
2023-04-07T15:16:33.861Z,67.93
2023-04-07T15:19:01.429Z,65.37
2023-04-07T15:21:28.551Z,69.97
2023-04-07T15:23:55.652Z,60.47
2023-04-07T15:26:23.106Z,64.37
2023-04-07T15:28:53.594Z,64.90
2023-04-07T15:31:22.579Z,65.67
2023-04-07T15:33:52.755Z,74.80
2023-04-07T15:36:19.765Z,69.63
2023-04-07T15:38:47.217Z,69.97
2023-04-07T15:41:16.442Z,65.20
2023-04-07T15:43:43.726Z,62.47
2023-04-07T15:46:10.821Z,64.50
2023-04-07T15:48:37.765Z,65.13
2023-04-07T15:51:05.007Z,63.47
2023-04-07T15:53:32.187Z,64.43
2023-04-07T15:55:59.165Z,64.40
2023-04-07T15:58:26.259Z,66.77
2023-04-07T16:00:53.483Z,63.37
2023-04-07T16:03:20.724Z,68.97
2023-04-07T16:05:47.969Z,63.50
2023-04-07T16:08:15.070Z,62.50
2023-04-07T16:10:42.180Z,69.23
2023-04-07T16:13:09.910Z,69.93
2023-04-07T16:15:40.542Z,62.97
2023-04-07T16:18:10.120Z,65.37
2023-04-07T16:20:37.068Z,59.80
2023-04-07T16:23:04.293Z,60.70
2023-04-07T16:25:31.487Z,60.63
2023-04-07T16:27:58.729Z,56.73
2023-04-07T16:30:25.896Z,57.27
2023-04-07T16:32:53.226Z,60.53
2023-04-07T16:35:20.546Z,55.87
2023-04-07T16:37:48.297Z,58.87
2023-04-07T16:40:15.603Z,52.97
2023-04-07T16:42:42.894Z,53.93
2023-04-07T16:45:10.403Z,54.97
2023-04-07T16:47:38.202Z,50.23
2023-04-07T16:50:05.894Z,50.10
2023-04-07T16:52:33.055Z,53.07
2023-04-07T16:55:01.261Z,57.40
2023-04-07T16:57:28.558Z,57.00
2023-04-07T16:59:55.563Z,58.37
2023-04-07T17:02:22.986Z,53.30
2023-04-07T17:04:50.171Z,58.33
2023-04-07T17:07:17.285Z,56.57
2023-04-07T17:09:44.286Z,60.43
2023-04-07T17:12:11.804Z,54.50
2023-04-07T17:14:38.929Z,55.67
2023-04-07T17:17:05.941Z,60.03
2023-04-07T17:19:33.097Z,59.87
2023-04-07T17:22:00.075Z,58.10
2023-04-07T17:24:27.137Z,59.73
2023-04-07T17:26:54.409Z,62.53
2023-04-07T17:29:22.003Z,63.97
2023-04-07T17:31:49.933Z,59.60
2023-04-07T17:34:17.207Z,55.97
2023-04-07T17:36:44.331Z,60.63
2023-04-07T17:39:11.364Z,61.43
2023-04-07T17:41:38.631Z,58.30
2023-04-07T17:44:06.254Z,66.23
2023-04-07T17:46:33.530Z,64.80
2023-04-07T17:49:01.691Z,65.30
2023-04-07T17:51:29.023Z,67.80
2023-04-07T17:53:56.746Z,66.53
2023-04-07T17:56:24.646Z,70.07
2023-04-07T17:58:51.837Z,67.53
2023-04-07T18:01:18.895Z,69.40
2023-04-07T18:03:47.715Z,70.67
2023-04-07T18:06:18.280Z,72.53
2023-04-07T18:08:46.814Z,73.20
2023-04-07T18:11:14.395Z,74.13
2023-04-07T18:13:41.923Z,79.53
2023-04-07T18:16:11.601Z,78.50
2023-04-07T18:18:38.979Z,87.23
2023-04-07T18:21:07.291Z,83.33
2023-04-07T18:23:34.728Z,86.53
2023-04-07T18:26:06.498Z,82.77
2023-04-07T18:28:34.525Z,86.00
2023-04-07T18:31:06.987Z,87.17
2023-04-07T18:33:35.217Z,86.93
2023-04-07T18:36:04.398Z,85.97
2023-04-07T18:38:31.728Z,88.30
2023-04-07T18:40:59.272Z,88.97
2023-04-07T18:43:26.725Z,75.53
2023-04-07T18:45:54.505Z,82.97
2023-04-07T18:48:21.997Z,80.27
2023-04-07T18:50:52.401Z,85.77
2023-04-07T18:53:24.247Z,90.83
2023-04-07T18:55:52.287Z,87.20
2023-04-07T18:58:20.223Z,88.03
2023-04-07T19:00:53.495Z,86.47
2023-04-07T19:03:22.168Z,87.43
2023-04-07T19:05:52.522Z,90.93
2023-04-07T19:08:21.611Z,81.00
2023-04-07T19:10:50.877Z,91.50
2023-04-07T19:13:22.318Z,83.97
2023-04-07T19:15:51.006Z,84.00
2023-04-07T19:18:18.534Z,82.17
2023-04-07T19:20:49.505Z,78.63
2023-04-07T19:23:17.824Z,85.43
2023-04-07T19:25:46.007Z,92.33
2023-04-07T19:28:18.927Z,92.73
2023-04-07T19:30:47.191Z,87.43
2023-04-07T19:33:14.965Z,80.90
2023-04-07T19:35:42.414Z,81.90
2023-04-07T19:38:10.219Z,88.73
2023-04-07T19:40:37.883Z,93.13
2023-04-07T19:43:07.563Z,86.50
2023-04-07T19:45:38.031Z,94.07
2023-04-07T19:48:08.177Z,90.83
2023-04-07T19:50:41.650Z,95.33
2023-04-07T19:53:09.005Z,95.43
2023-04-07T19:55:37.387Z,95.27
2023-04-07T19:58:04.917Z,91.80
2023-04-07T20:00:36.410Z,85.27
2023-04-07T20:03:04.931Z,93.77
2023-04-07T20:05:33.501Z,90.87
2023-04-07T20:08:03.675Z,91.90
2023-04-07T20:10:31.890Z,90.23
2023-04-07T20:13:00.318Z,85.07
2023-04-07T20:15:28.312Z,81.60
2023-04-07T20:17:59.067Z,85.67
2023-04-07T20:20:28.431Z,90.43
2023-04-07T20:22:55.771Z,91.20
2023-04-07T20:25:26.385Z,85.57
2023-04-07T20:27:54.427Z,91.67
2023-04-07T20:30:22.595Z,91.63
2023-04-07T20:32:50.285Z,91.20
2023-04-07T20:35:17.881Z,93.47
2023-04-07T20:37:48.452Z,96.20
2023-04-07T20:40:19.353Z,94.63
2023-04-07T20:42:47.747Z,92.23
2023-04-07T20:45:15.188Z,98.73
2023-04-07T20:47:42.667Z,89.93
2023-04-07T20:50:11.060Z,95.20
2023-04-07T20:52:43.913Z,91.37
2023-04-07T20:55:11.868Z,93.73
2023-04-07T20:57:42.137Z,87.53
2023-04-07T21:00:11.903Z,85.87
2023-04-07T21:02:39.807Z,85.90
2023-04-07T21:05:07.490Z,88.07
2023-04-07T21:07:34.986Z,86.07
2023-04-07T21:10:02.650Z,90.63
2023-04-07T21:12:30.133Z,86.20
2023-04-07T21:14:57.820Z,83.77
2023-04-07T21:17:25.524Z,87.40
2023-04-07T21:19:53.118Z,86.53
2023-04-07T21:22:20.664Z,89.47
2023-04-07T21:24:50.272Z,100.07
2023-04-07T21:27:18.542Z,94.53
2023-04-07T21:29:45.902Z,89.73
2023-04-07T21:32:14.261Z,99.47
2023-04-07T21:34:41.952Z,93.40
2023-04-07T21:37:09.720Z,91.00
2023-04-07T21:39:37.024Z,88.57
2023-04-07T21:42:04.758Z,94.33
2023-04-07T21:44:34.749Z,94.43
2023-04-07T21:47:02.822Z,95.20
2023-04-07T21:49:30.652Z,87.33
2023-04-07T21:51:59.165Z,87.43
2023-04-07T21:54:26.589Z,91.43
2023-04-07T21:56:54.406Z,88.00
2023-04-07T21:59:22.117Z,82.73
2023-04-07T22:01:49.665Z,86.47
2023-04-07T22:04:17.383Z,86.23
2023-04-07T22:06:44.860Z,80.17
2023-04-07T22:09:12.611Z,83.17
2023-04-07T22:11:40.384Z,82.53
2023-04-07T22:14:08.042Z,80.53
2023-04-07T22:16:35.942Z,83.37
2023-04-07T22:19:04.267Z,83.27
2023-04-07T22:21:34.842Z,81.23
2023-04-07T22:24:02.084Z,85.47
2023-04-07T22:26:31.816Z,80.00
2023-04-07T22:28:59.433Z,86.27
2023-04-07T22:31:26.474Z,81.90
2023-04-07T22:33:53.563Z,78.37
2023-04-07T22:36:20.635Z,85.10
2023-04-07T22:38:47.793Z,81.77
2023-04-07T22:41:15.174Z,82.47
2023-04-07T22:43:42.204Z,77.20
2023-04-07T22:46:09.157Z,77.83
2023-04-07T22:48:36.442Z,82.90
2023-04-07T22:51:03.564Z,81.63
2023-04-07T22:53:30.674Z,89.77
2023-04-07T22:55:57.802Z,89.13
2023-04-07T22:58:24.933Z,92.83
2023-04-07T23:00:51.927Z,94.83
2023-04-07T23:03:19.120Z,88.30
2023-04-07T23:05:46.207Z,90.43
2023-04-07T23:08:13.221Z,90.27
2023-04-07T23:10:40.463Z,98.33
2023-04-07T23:13:07.536Z,101.83
2023-04-07T23:15:36.009Z,96.77
2023-04-07T23:18:03.097Z,100.80
2023-04-07T23:20:30.455Z,100.67
2023-04-07T23:22:57.416Z,99.07
2023-04-07T23:25:24.592Z,100.60
2023-04-07T23:27:51.934Z,103.13
2023-04-07T23:30:18.942Z,91.93
2023-04-07T23:32:46.260Z,98.13
2023-04-07T23:35:13.510Z,95.87
2023-04-07T23:37:42.382Z,99.20
2023-04-07T23:40:10.539Z,95.30
2023-04-07T23:42:37.513Z,103.30
2023-04-07T23:45:04.859Z,90.17
2023-04-07T23:47:31.871Z,91.57
2023-04-07T23:50:00.313Z,85.67
2023-04-07T23:52:28.138Z,86.63
2023-04-07T23:54:55.383Z,93.03
2023-04-07T23:57:22.786Z,91.70
2023-04-07T23:59:49.780Z,96.17
